CMA-CGM Fort Saint Pierre — FQFM — position and weather

sailwx.info

Track history (hours):
 
Tides and Currents Weather Stations Pressure Air Temp Water Temp Dewpoint Dewpoint Depression Visibility Wind Speed Wind Dir Waves Ship Positions

CMA-CGM Fort Saint Pierre

Last reported at 2018-Apr-22 19:21 UTC. Time now 2018-Apr-23 02:00 UTC.
Position N 16°07' W 061°27'.

Length 197 m; beam 30 m.

Type: Ship (hazmat cat D). MMSI: 226328000.

Date/timePositionNaut miles runAvg speedWind from/ knotsBaromVisibWave heightAir tempDewpointWater temp
2018-Apr-22 19:21N 16°07' W 061°27'2 7.0
2018-Apr-22 19:00N 16°08' W 061°29'3 5.7
2018-Apr-22 18:30N 16°09' W 061°32'5 9.2
2018-Apr-22 18:00N 16°14' W 061°32'0 0.5
2018-Apr-22 17:30N 16°14' W 061°33'0 0.0
2018-Apr-22 17:00N 16°14' W 061°33'0 0.0
2018-Apr-22 16:30N 16°14' W 061°33'0 0.0
2018-Apr-22 16:00N 16°14' W 061°33'0 0.0
2018-Apr-22 15:27N 16°14' W 061°33'0 0.0
2018-Apr-22 15:00N 16°14' W 061°33'0 0.0
2018-Apr-22 14:30N 16°14' W 061°33'0 0.0
2018-Apr-22 14:00N 16°14' W 061°33'0 0.0
2018-Apr-22 13:30N 16°14' W 061°33'0 0.0
2018-Apr-22 13:00N 16°14' W 061°33'0 0.0
2018-Apr-22 12:30N 16°14' W 061°33'0 0.0
2018-Apr-22 12:00N 16°14' W 061°33'0 0.0
2018-Apr-22 11:30N 16°14' W 061°33'0 0.0
2018-Apr-22 11:00N 16°14' W 061°33'0 0.0
2018-Apr-22 10:30N 16°14' W 061°33'0 0.0
2018-Apr-22 10:00N 16°14' W 061°33'0 0.0
2018-Apr-22 09:30N 16°14' W 061°33'0 0.0
2018-Apr-22 09:00N 16°14' W 061°33'0 0.0
2018-Apr-22 08:30N 16°14' W 061°33'0 0.0
2018-Apr-22 08:00N 16°14' W 061°33'0 0.0
2018-Apr-22 07:30N 16°14' W 061°33'0 0.0
2018-Apr-22 07:00N 16°14' W 061°33'0 0.0
2018-Apr-22 06:27N 16°14' W 061°33'0 0.0
2018-Apr-22 06:00N 16°14' W 061°33'0 0.0
2018-Apr-22 05:30N 16°14' W 061°33'0 0.0
2018-Apr-22 05:00N 16°14' W 061°33'0 0.0
2018-Apr-22 04:30N 16°14' W 061°33'0 0.0
2018-Apr-22 04:00N 16°14' W 061°33'0 0.0
2018-Apr-22 03:30N 16°14' W 061°33'0 0.0
2018-Apr-22 03:00N 16°14' W 061°33'0 0.0
2018-Apr-22 02:30N 16°14' W 061°33'0 0.0
2018-Apr-22 02:00N 16°14' W 061°33'0 0.0
2018-Apr-22 01:30N 16°14' W 061°33'0 0.0
2018-Apr-22 01:00N 16°14' W 061°33'0 0.0
2018-Apr-22 00:30N 16°14' W 061°33'0 0.0
2018-Apr-22 00:00N 16°14' W 061°33'0 0.0
2018-Apr-21 23:30N 16°14' W 061°33'0 0.0
2018-Apr-21 23:00N 16°14' W 061°33'0 0.0
2018-Apr-21 22:30N 16°14' W 061°33'0 0.0
2018-Apr-21 22:00N 16°14' W 061°33'0 0.0
2018-Apr-21 21:27N 16°14' W 061°33'0 0.0
2018-Apr-21 21:00N 16°14' W 061°33'0 0.0
2018-Apr-21 20:30N 16°14' W 061°33'0 0.0
2018-Apr-21 20:00N 16°14' W 061°33'0 0.0
2018-Apr-21 19:30N 16°14' W 061°33'0 0.0
2018-Apr-21 19:00N 16°14' W 061°33'0 0.0
2018-Apr-21 18:30N 16°14' W 061°33'0 0.0
2018-Apr-21 18:00N 16°14' W 061°33'0 0.0
2018-Apr-21 17:30N 16°14' W 061°33'0 0.0
2018-Apr-21 17:00N 16°14' W 061°33'0 0.0
2018-Apr-21 16:30N 16°14' W 061°33'0 0.0
2018-Apr-21 16:00N 16°14' W 061°33'0 0.0
2018-Apr-21 15:30N 16°14' W 061°33'0 0.0
2018-Apr-21 15:00N 16°14' W 061°33'0 0.0
2018-Apr-21 14:30N 16°14' W 061°33'0 0.0
2018-Apr-21 14:00N 16°14' W 061°33'0 0.0
2018-Apr-21 13:30N 16°14' W 061°33'0 0.0
2018-Apr-21 13:00N 16°14' W 061°33'0 0.0
2018-Apr-21 12:30N 16°14' W 061°33'0 0.0
2018-Apr-21 12:00N 16°14' W 061°33'0 0.0
2018-Apr-21 11:30N 16°14' W 061°33'0 0.0
2018-Apr-21 11:00N 16°14' W 061°33'0 0.0
2018-Apr-21 10:30N 16°14' W 061°33'0 0.0
2018-Apr-21 10:00N 16°14' W 061°33'1 2.7
2018-Apr-21 09:30N 16°13' W 061°32'4 8.1
2018-Apr-21 09:00N 16°09' W 061°30'3412.1
2018-Apr-21 06:11N 15°35' W 061°32'913.7
2018-Apr-21 05:31N 15°26' W 061°32'015.7
2018-Apr-21 05:30N 15°26' W 061°32'3813.7
2018-Apr-21 02:44N 14°49' W 061°22'813.6
2018-Apr-21 02:07N 14°41' W 061°19'114.1
2018-Apr-21 02:00N 14°40' W 061°18'712.3
2018-Apr-21 01:24N 14°36' W 061°12'613.8
2018-Apr-21 00:58N 14°35' W 061°06'2 4.8
2018-Apr-21 00:28N 14°36' W 061°03'0 0.0
2018-Apr-21 00:00N 14°36' W 061°03'0 0.0
2018-Apr-20 23:27N 14°36' W 061°03'0 0.0
2018-Apr-20 23:00N 14°36' W 061°03'0 0.0
2018-Apr-20 22:30N 14°36' W 061°03'0 0.0
2018-Apr-20 22:00N 14°36' W 061°03'0 0.0
2018-Apr-20 21:30N 14°36' W 061°03'0 0.0
2018-Apr-20 21:00N 14°36' W 061°03'0 0.0
2018-Apr-20 20:30N 14°36' W 061°03'0 0.0
2018-Apr-20 20:00N 14°36' W 061°03'0 0.0
2018-Apr-20 19:30N 14°36' W 061°03'0 0.0
2018-Apr-20 18:57N 14°36' W 061°03'0 0.0
2018-Apr-20 18:27N 14°36' W 061°03'0 0.0
2018-Apr-20 18:00N 14°36' W 061°03'0 0.0
2018-Apr-20 17:30N 14°36' W 061°03'0 0.0
2018-Apr-20 16:54N 14°36' W 061°03'0 0.0
2018-Apr-20 16:30N 14°36' W 061°03'0 0.0
2018-Apr-20 15:51N 14°36' W 061°03'0 0.0
2018-Apr-20 15:27N 14°36' W 061°03'0 0.0
2018-Apr-20 14:57N 14°36' W 061°03'0 0.0
2018-Apr-20 14:27N 14°36' W 061°03'0 0.0
2018-Apr-20 14:00N 14°36' W 061°03'0 0.0
2018-Apr-20 13:27N 14°36' W 061°03'0 0.0
2018-Apr-20 13:00N 14°36' W 061°03'0 0.0
2018-Apr-20 12:30N 14°36' W 061°03'0 0.0
2018-Apr-20 12:00N 14°36' W 061°03'0 0.0
2018-Apr-20 11:30N 14°36' W 061°03'0 0.0
2018-Apr-20 11:00N 14°36' W 061°03'0 0.0
2018-Apr-20 10:30N 14°36' W 061°03'0 0.0
2018-Apr-20 10:00N 14°36' W 061°03'0 0.0
2018-Apr-20 09:30N 14°36' W 061°03'0 0.0
2018-Apr-20 09:00N 14°36' W 061°03'0 0.0
2018-Apr-20 08:30N 14°36' W 061°03'0 0.0
2018-Apr-20 07:57N 14°36' W 061°03'0 0.0
2018-Apr-20 07:30N 14°36' W 061°03'0 0.0
2018-Apr-20 07:00N 14°36' W 061°03'0 0.0
2018-Apr-20 06:30N 14°36' W 061°03'0 0.0
2018-Apr-20 05:24N 14°36' W 061°03'0 0.0
2018-Apr-20 05:00N 14°36' W 061°03'0 0.0
2018-Apr-20 04:30N 14°36' W 061°03'0 0.0
2018-Apr-20 04:00N 14°36' W 061°03'0 0.0
2018-Apr-20 03:30N 14°36' W 061°03'0 0.0
2018-Apr-20 03:00N 14°36' W 061°03'0 0.0
2018-Apr-20 02:30N 14°36' W 061°03'0 0.0
2018-Apr-20 02:00N 14°36' W 061°03'0 0.0
2018-Apr-20 01:30N 14°36' W 061°03'0 0.0
2018-Apr-20 01:00N 14°36' W 061°03'0 0.0
2018-Apr-20 00:30N 14°36' W 061°03'0 0.0
2018-Apr-19 23:18N 14°36' W 061°03'0 0.0
2018-Apr-19 23:00N 14°36' W 061°03'0 0.0
2018-Apr-19 22:30N 14°36' W 061°03'0 0.0
2018-Apr-19 22:00N 14°36' W 061°03'0 0.0
2018-Apr-19 21:30N 14°36' W 061°03'0 0.0
2018-Apr-19 21:00N 14°36' W 061°03'0 0.0
2018-Apr-19 20:30N 14°36' W 061°03'0 0.0
2018-Apr-19 20:00N 14°36' W 061°03'0 0.0
2018-Apr-19 19:24N 14°36' W 061°03'0 0.0
2018-Apr-19 19:00N 14°36' W 061°03'0 0.0
2018-Apr-19 18:27N 14°36' W 061°03'0 0.0
2018-Apr-19 17:54N 14°36' W 061°03'0 0.0
2018-Apr-19 17:27N 14°36' W 061°03'0 0.0
2018-Apr-19 17:00N 14°36' W 061°03'0 0.0
2018-Apr-19 16:30N 14°36' W 061°03'0 0.0
2018-Apr-19 16:00N 14°36' W 061°03'0 0.0
2018-Apr-19 15:30N 14°36' W 061°03'0 0.0
2018-Apr-19 15:00N 14°36' W 061°03'0 0.0
2018-Apr-19 14:30N 14°36' W 061°03'0 0.0
2018-Apr-19 14:00N 14°36' W 061°03'0 0.0
2018-Apr-19 13:30N 14°36' W 061°03'0 0.0
2018-Apr-19 13:00N 14°36' W 061°03'0 0.0
2018-Apr-19 12:30N 14°36' W 061°03'0 0.0
2018-Apr-19 12:00N 14°36' W 061°03'0 0.0
2018-Apr-19 11:27N 14°36' W 061°03'0 0.0
2018-Apr-19 05:18N 14°36' W 061°03'0 0.0
2018-Apr-19 05:00N 14°36' W 061°03'0 0.0
2018-Apr-19 04:30N 14°36' W 061°03'0 0.0
2018-Apr-19 04:00N 14°36' W 061°03'0 0.0
2018-Apr-19 03:30N 14°36' W 061°03'0 0.0
2018-Apr-19 03:00N 14°36' W 061°03'0 0.0
2018-Apr-19 02:30N 14°36' W 061°03'0 0.0
2018-Apr-19 02:00N 14°36' W 061°03'0 0.0
2018-Apr-19 01:30N 14°36' W 061°03'0 0.0
2018-Apr-19 01:00N 14°36' W 061°03'0 0.0
2018-Apr-19 00:30N 14°36' W 061°03'0 0.0
2018-Apr-19 00:00N 14°36' W 061°03'0 0.0
2018-Apr-18 23:30N 14°36' W 061°03'0 0.0
2018-Apr-18 23:00N 14°36' W 061°03'0 0.0
2018-Apr-18 22:30N 14°36' W 061°03'0 0.0
2018-Apr-18 22:00N 14°36' W 061°03'0 0.0
2018-Apr-18 21:18N 14°36' W 061°03'0 0.0
2018-Apr-18 21:00N 14°36' W 061°03'0 0.0
2018-Apr-18 20:30N 14°36' W 061°03'0 0.0
2018-Apr-18 20:00N 14°36' W 061°03'0 0.0
2018-Apr-18 19:30N 14°36' W 061°03'0 0.0
2018-Apr-18 18:57N 14°36' W 061°03'0 0.0
2018-Apr-18 18:30N 14°36' W 061°03'0 0.0
2018-Apr-18 18:00N 14°36' W 061°03'0 0.0
2018-Apr-18 17:30N 14°36' W 061°03'0 0.0
2018-Apr-18 17:00N 14°36' W 061°03'0 0.0
2018-Apr-18 16:30N 14°36' W 061°03'0 0.0
2018-Apr-18 16:00N 14°36' W 061°03'0 0.0
2018-Apr-18 15:30N 14°36' W 061°03'0 0.0
2018-Apr-18 15:00N 14°36' W 061°03'0 0.0
2018-Apr-18 14:30N 14°36' W 061°03'0 0.0
2018-Apr-18 14:00N 14°36' W 061°03'0 0.0
2018-Apr-18 13:30N 14°36' W 061°03'0 0.0
2018-Apr-18 13:00N 14°36' W 061°03'0 0.0
2018-Apr-18 12:30N 14°36' W 061°03'0 0.0
2018-Apr-18 12:00N 14°36' W 061°03'0 0.0
2018-Apr-18 11:30N 14°36' W 061°03'0 0.0
2018-Apr-18 11:00N 14°36' W 061°03'0 0.0
2018-Apr-18 10:30N 14°36' W 061°03'0 0.0
2018-Apr-18 10:00N 14°36' W 061°03'0 0.4
2018-Apr-18 09:30N 14°35' W 061°03'3 5.4
2018-Apr-18 09:00N 14°35' W 061°06'510.3
2018-Apr-18 08:30N 14°36' W 061°11'612.0
2018-Apr-18 08:00N 14°40' W 061°16'4714.0
2018-Apr-18 04:38N 15°24' W 061°32'814.8
2018-Apr-18 04:06N 15°32' W 061°34'115.0
2018-Apr-18 04:00N 15°34' W 061°33'816.8
2018-Apr-18 03:31N 15°42' W 061°32'918.3
2018-Apr-18 03:00N 15°51' W 061°30'918.7
2018-Apr-18 02:30N 15°60' W 061°30'816.2
2018-Apr-18 02:00N 16°08' W 061°31'4 8.1
2018-Apr-18 01:28N 16°12' W 061°32'2 3.0
2018-Apr-18 00:55N 16°14' W 061°33'0 0.0
2018-Apr-18 00:22N 16°14' W 061°33'0 0.0
2018-Apr-17 23:49N 16°14' W 061°33'0 0.0
2018-Apr-17 23:25N 16°14' W 061°33'0 0.0
2018-Apr-17 22:55N 16°14' W 061°33'0 0.0
2018-Apr-17 20:49N 16°14' W 061°33'0 0.0
2018-Apr-17 20:28N 16°14' W 061°33'0 0.0
2018-Apr-17 19:49N 16°14' W 061°33'0 0.0
2018-Apr-17 19:28N 16°14' W 061°33'0 0.0
2018-Apr-17 18:58N 16°14' W 061°33'0 0.0
2018-Apr-17 18:28N 16°14' W 061°33'0 0.0
2018-Apr-17 17:58N 16°14' W 061°33'0 0.0
2018-Apr-17 17:22N 16°14' W 061°33'0 0.0
2018-Apr-17 16:55N 16°14' W 061°33'0 0.0
2018-Apr-17 15:10N 16°14' W 061°33'0 0.0
2018-Apr-17 14:52N 16°14' W 061°33'0 0.0
2018-Apr-17 14:25N 16°14' W 061°33'0 0.0
2018-Apr-17 13:58N 16°14' W 061°33'0 0.0
2018-Apr-17 13:28N 16°14' W 061°33'0 0.0
2018-Apr-17 12:58N 16°14' W 061°33'0 0.0
2018-Apr-17 12:28N 16°14' W 061°33'0 0.0
2018-Apr-17 11:58N 16°14' W 061°33'0 0.0
2018-Apr-17 11:28N 16°14' W 061°33'0 0.0
2018-Apr-17 10:46N 16°14' W 061°33'0 0.0
2018-Apr-17 10:28N 16°14' W 061°33'0 0.0
2018-Apr-17 08:55N 16°14' W 061°33'0 0.0
2018-Apr-17 08:19N 16°14' W 061°33'0 0.0
2018-Apr-17 06:55N 16°14' W 061°33'0 0.0
2018-Apr-17 06:25N 16°14' W 061°33'0 0.0
2018-Apr-17 05:58N 16°14' W 061°33'0 0.0
2018-Apr-17 05:25N 16°14' W 061°33'0 0.0
2018-Apr-17 03:55N 16°14' W 061°33'0 0.0
2018-Apr-17 03:28N 16°14' W 061°33'0 0.0
2018-Apr-16 22:43N 16°14' W 061°33'0 0.0
2018-Apr-16 17:52N 16°14' W 061°33'0 0.0
2018-Apr-16 17:28N 16°14' W 061°33'0 0.0
2018-Apr-16 16:58N 16°14' W 061°33'0 0.0
2018-Apr-16 14:22N 16°14' W 061°33'0 0.0
2018-Apr-16 13:43N 16°14' W 061°33'0 0.0
2018-Apr-16 12:22N 16°14' W 061°33'0 0.0
2018-Apr-16 11:58N 16°14' W 061°33'0 0.0
2018-Apr-16 11:07N 16°14' W 061°33'0 0.0
2018-Apr-16 10:10N 16°14' W 061°33'0 0.1
2018-Apr-16 10:00N 16°14' W 061°33'2 4.3
2018-Apr-16 09:30N 16°12' W 061°32'3 5.8
2018-Apr-16 09:00N 16°09' W 061°30'5 9.7
2018-Apr-16 08:30N 16°07' W 061°26'816.1
2018-Apr-16 08:01N 16°07' W 061°18'1817.2
2018-Apr-16 06:56N 16°12' W 060°59'  
Track history (hours):
 
Tides and Currents Weather Stations Pressure Air Temp Water Temp Dewpoint Dewpoint Depression Visibility Wind Speed Wind Dir Waves Ship Positions

CMA-CGM Fort Saint Pierre

Last reported at 2018-Apr-22 19:21 UTC. Time now 2018-Apr-23 02:00 UTC.
Position N 16°07' W 061°27'.

Length 197 m; beam 30 m.

Type: Ship (hazmat cat D). MMSI: 226328000.

Date/timePositionNaut miles runAvg speedWind from/ knotsBaromVisibWave heightAir tempDewpointWater temp
2018-Apr-22 19:21N 16°07' W 061°27'2 7.0
2018-Apr-22 19:00N 16°08' W 061°29'3 5.7
2018-Apr-22 18:30N 16°09' W 061°32'5 9.2
2018-Apr-22 18:00N 16°14' W 061°32'0 0.5
2018-Apr-22 17:30N 16°14' W 061°33'0 0.0
2018-Apr-22 17:00N 16°14' W 061°33'0 0.0
2018-Apr-22 16:30N 16°14' W 061°33'0 0.0
2018-Apr-22 16:00N 16°14' W 061°33'0 0.0
2018-Apr-22 15:27N 16°14' W 061°33'0 0.0
2018-Apr-22 15:00N 16°14' W 061°33'0 0.0
2018-Apr-22 14:30N 16°14' W 061°33'0 0.0
2018-Apr-22 14:00N 16°14' W 061°33'0 0.0
2018-Apr-22 13:30N 16°14' W 061°33'0 0.0
2018-Apr-22 13:00N 16°14' W 061°33'0 0.0
2018-Apr-22 12:30N 16°14' W 061°33'0 0.0
2018-Apr-22 12:00N 16°14' W 061°33'0 0.0
2018-Apr-22 11:30N 16°14' W 061°33'0 0.0
2018-Apr-22 11:00N 16°14' W 061°33'0 0.0
2018-Apr-22 10:30N 16°14' W 061°33'0 0.0
2018-Apr-22 10:00N 16°14' W 061°33'0 0.0
2018-Apr-22 09:30N 16°14' W 061°33'0 0.0
2018-Apr-22 09:00N 16°14' W 061°33'0 0.0
2018-Apr-22 08:30N 16°14' W 061°33'0 0.0
2018-Apr-22 08:00N 16°14' W 061°33'0 0.0
2018-Apr-22 07:30N 16°14' W 061°33'0 0.0
2018-Apr-22 07:00N 16°14' W 061°33'0 0.0
2018-Apr-22 06:27N 16°14' W 061°33'0 0.0
2018-Apr-22 06:00N 16°14' W 061°33'0 0.0
2018-Apr-22 05:30N 16°14' W 061°33'0 0.0
2018-Apr-22 05:00N 16°14' W 061°33'0 0.0
2018-Apr-22 04:30N 16°14' W 061°33'0 0.0
2018-Apr-22 04:00N 16°14' W 061°33'0 0.0
2018-Apr-22 03:30N 16°14' W 061°33'0 0.0
2018-Apr-22 03:00N 16°14' W 061°33'0 0.0
2018-Apr-22 02:30N 16°14' W 061°33'0 0.0
2018-Apr-22 02:00N 16°14' W 061°33'0 0.0
2018-Apr-22 01:30N 16°14' W 061°33'0 0.0
2018-Apr-22 01:00N 16°14' W 061°33'0 0.0
2018-Apr-22 00:30N 16°14' W 061°33'0 0.0
2018-Apr-22 00:00N 16°14' W 061°33'0 0.0
2018-Apr-21 23:30N 16°14' W 061°33'0 0.0
2018-Apr-21 23:00N 16°14' W 061°33'0 0.0
2018-Apr-21 22:30N 16°14' W 061°33'0 0.0
2018-Apr-21 22:00N 16°14' W 061°33'0 0.0
2018-Apr-21 21:27N 16°14' W 061°33'0 0.0
2018-Apr-21 21:00N 16°14' W 061°33'0 0.0
2018-Apr-21 20:30N 16°14' W 061°33'0 0.0
2018-Apr-21 20:00N 16°14' W 061°33'0 0.0
2018-Apr-21 19:30N 16°14' W 061°33'0 0.0
2018-Apr-21 19:00N 16°14' W 061°33'0 0.0
2018-Apr-21 18:30N 16°14' W 061°33'0 0.0
2018-Apr-21 18:00N 16°14' W 061°33'0 0.0
2018-Apr-21 17:30N 16°14' W 061°33'0 0.0
2018-Apr-21 17:00N 16°14' W 061°33'0 0.0
2018-Apr-21 16:30N 16°14' W 061°33'0 0.0
2018-Apr-21 16:00N 16°14' W 061°33'0 0.0
2018-Apr-21 15:30N 16°14' W 061°33'0 0.0
2018-Apr-21 15:00N 16°14' W 061°33'0 0.0
2018-Apr-21 14:30N 16°14' W 061°33'0 0.0
2018-Apr-21 14:00N 16°14' W 061°33'0 0.0
2018-Apr-21 13:30N 16°14' W 061°33'0 0.0
2018-Apr-21 13:00N 16°14' W 061°33'0 0.0
2018-Apr-21 12:30N 16°14' W 061°33'0 0.0
2018-Apr-21 12:00N 16°14' W 061°33'0 0.0
2018-Apr-21 11:30N 16°14' W 061°33'0 0.0
2018-Apr-21 11:00N 16°14' W 061°33'0 0.0
2018-Apr-21 10:30N 16°14' W 061°33'0 0.0
2018-Apr-21 10:00N 16°14' W 061°33'1 2.7
2018-Apr-21 09:30N 16°13' W 061°32'4 8.1
2018-Apr-21 09:00N 16°09' W 061°30'3412.1
2018-Apr-21 06:11N 15°35' W 061°32'913.7
2018-Apr-21 05:31N 15°26' W 061°32'015.7
2018-Apr-21 05:30N 15°26' W 061°32'3813.7
2018-Apr-21 02:44N 14°49' W 061°22'813.6
2018-Apr-21 02:07N 14°41' W 061°19'114.1
2018-Apr-21 02:00N 14°40' W 061°18'712.3
2018-Apr-21 01:24N 14°36' W 061°12'613.8
2018-Apr-21 00:58N 14°35' W 061°06'2 4.8
2018-Apr-21 00:28N 14°36' W 061°03'0 0.0
2018-Apr-21 00:00N 14°36' W 061°03'0 0.0
2018-Apr-20 23:27N 14°36' W 061°03'0 0.0
2018-Apr-20 23:00N 14°36' W 061°03'0 0.0
2018-Apr-20 22:30N 14°36' W 061°03'0 0.0
2018-Apr-20 22:00N 14°36' W 061°03'0 0.0
2018-Apr-20 21:30N 14°36' W 061°03'0 0.0
2018-Apr-20 21:00N 14°36' W 061°03'0 0.0
2018-Apr-20 20:30N 14°36' W 061°03'0 0.0
2018-Apr-20 20:00N 14°36' W 061°03'0 0.0
2018-Apr-20 19:30N 14°36' W 061°03'0 0.0
2018-Apr-20 18:57N 14°36' W 061°03'0 0.0
2018-Apr-20 18:27N 14°36' W 061°03'0 0.0
2018-Apr-20 18:00N 14°36' W 061°03'0 0.0
2018-Apr-20 17:30N 14°36' W 061°03'0 0.0
2018-Apr-20 16:54N 14°36' W 061°03'0 0.0
2018-Apr-20 16:30N 14°36' W 061°03'0 0.0
2018-Apr-20 15:51N 14°36' W 061°03'0 0.0
2018-Apr-20 15:27N 14°36' W 061°03'0 0.0
2018-Apr-20 14:57N 14°36' W 061°03'0 0.0
2018-Apr-20 14:27N 14°36' W 061°03'0 0.0
2018-Apr-20 14:00N 14°36' W 061°03'0 0.0
2018-Apr-20 13:27N 14°36' W 061°03'0 0.0
2018-Apr-20 13:00N 14°36' W 061°03'0 0.0
2018-Apr-20 12:30N 14°36' W 061°03'0 0.0
2018-Apr-20 12:00N 14°36' W 061°03'0 0.0
2018-Apr-20 11:30N 14°36' W 061°03'0 0.0
2018-Apr-20 11:00N 14°36' W 061°03'0 0.0
2018-Apr-20 10:30N 14°36' W 061°03'0 0.0
2018-Apr-20 10:00N 14°36' W 061°03'0 0.0
2018-Apr-20 09:30N 14°36' W 061°03'0 0.0
2018-Apr-20 09:00N 14°36' W 061°03'0 0.0
2018-Apr-20 08:30N 14°36' W 061°03'0 0.0
2018-Apr-20 07:57N 14°36' W 061°03'0 0.0
2018-Apr-20 07:30N 14°36' W 061°03'0 0.0
2018-Apr-20 07:00N 14°36' W 061°03'0 0.0
2018-Apr-20 06:30N 14°36' W 061°03'0 0.0
2018-Apr-20 05:24N 14°36' W 061°03'0 0.0
2018-Apr-20 05:00N 14°36' W 061°03'0 0.0
2018-Apr-20 04:30N 14°36' W 061°03'0 0.0
2018-Apr-20 04:00N 14°36' W 061°03'0 0.0
2018-Apr-20 03:30N 14°36' W 061°03'0 0.0
2018-Apr-20 03:00N 14°36' W 061°03'0 0.0
2018-Apr-20 02:30N 14°36' W 061°03'0 0.0
2018-Apr-20 02:00N 14°36' W 061°03'0 0.0
2018-Apr-20 01:30N 14°36' W 061°03'0 0.0
2018-Apr-20 01:00N 14°36' W 061°03'0 0.0
2018-Apr-20 00:30N 14°36' W 061°03'0 0.0
2018-Apr-19 23:18N 14°36' W 061°03'0 0.0
2018-Apr-19 23:00N 14°36' W 061°03'0 0.0
2018-Apr-19 22:30N 14°36' W 061°03'0 0.0
2018-Apr-19 22:00N 14°36' W 061°03'0 0.0
2018-Apr-19 21:30N 14°36' W 061°03'0 0.0
2018-Apr-19 21:00N 14°36' W 061°03'0 0.0
2018-Apr-19 20:30N 14°36' W 061°03'0 0.0
2018-Apr-19 20:00N 14°36' W 061°03'0 0.0
2018-Apr-19 19:24N 14°36' W 061°03'0 0.0
2018-Apr-19 19:00N 14°36' W 061°03'0 0.0
2018-Apr-19 18:27N 14°36' W 061°03'0 0.0
2018-Apr-19 17:54N 14°36' W 061°03'0 0.0
2018-Apr-19 17:27N 14°36' W 061°03'0 0.0
2018-Apr-19 17:00N 14°36' W 061°03'0 0.0
2018-Apr-19 16:30N 14°36' W 061°03'0 0.0
2018-Apr-19 16:00N 14°36' W 061°03'0 0.0
2018-Apr-19 15:30N 14°36' W 061°03'0 0.0
2018-Apr-19 15:00N 14°36' W 061°03'0 0.0
2018-Apr-19 14:30N 14°36' W 061°03'0 0.0
2018-Apr-19 14:00N 14°36' W 061°03'0 0.0
2018-Apr-19 13:30N 14°36' W 061°03'0 0.0
2018-Apr-19 13:00N 14°36' W 061°03'0 0.0
2018-Apr-19 12:30N 14°36' W 061°03'0 0.0
2018-Apr-19 12:00N 14°36' W 061°03'0 0.0
2018-Apr-19 11:27N 14°36' W 061°03'0 0.0
2018-Apr-19 05:18N 14°36' W 061°03'0 0.0
2018-Apr-19 05:00N 14°36' W 061°03'0 0.0
2018-Apr-19 04:30N 14°36' W 061°03'0 0.0
2018-Apr-19 04:00N 14°36' W 061°03'0 0.0
2018-Apr-19 03:30N 14°36' W 061°03'0 0.0
2018-Apr-19 03:00N 14°36' W 061°03'0 0.0
2018-Apr-19 02:30N 14°36' W 061°03'0 0.0
2018-Apr-19 02:00N 14°36' W 061°03'0 0.0
2018-Apr-19 01:30N 14°36' W 061°03'0 0.0
2018-Apr-19 01:00N 14°36' W 061°03'0 0.0
2018-Apr-19 00:30N 14°36' W 061°03'0 0.0
2018-Apr-19 00:00N 14°36' W 061°03'0 0.0
2018-Apr-18 23:30N 14°36' W 061°03'0 0.0
2018-Apr-18 23:00N 14°36' W 061°03'0 0.0
2018-Apr-18 22:30N 14°36' W 061°03'0 0.0
2018-Apr-18 22:00N 14°36' W 061°03'0 0.0
2018-Apr-18 21:18N 14°36' W 061°03'0 0.0
2018-Apr-18 21:00N 14°36' W 061°03'0 0.0
2018-Apr-18 20:30N 14°36' W 061°03'0 0.0
2018-Apr-18 20:00N 14°36' W 061°03'0 0.0
2018-Apr-18 19:30N 14°36' W 061°03'0 0.0
2018-Apr-18 18:57N 14°36' W 061°03'0 0.0
2018-Apr-18 18:30N 14°36' W 061°03'0 0.0
2018-Apr-18 18:00N 14°36' W 061°03'0 0.0
2018-Apr-18 17:30N 14°36' W 061°03'0 0.0
2018-Apr-18 17:00N 14°36' W 061°03'0 0.0
2018-Apr-18 16:30N 14°36' W 061°03'0 0.0
2018-Apr-18 16:00N 14°36' W 061°03'0 0.0
2018-Apr-18 15:30N 14°36' W 061°03'0 0.0
2018-Apr-18 15:00N 14°36' W 061°03'0 0.0
2018-Apr-18 14:30N 14°36' W 061°03'0 0.0
2018-Apr-18 14:00N 14°36' W 061°03'0 0.0
2018-Apr-18 13:30N 14°36' W 061°03'0 0.0
2018-Apr-18 13:00N 14°36' W 061°03'0 0.0
2018-Apr-18 12:30N 14°36' W 061°03'0 0.0
2018-Apr-18 12:00N 14°36' W 061°03'0 0.0
2018-Apr-18 11:30N 14°36' W 061°03'0 0.0
2018-Apr-18 11:00N 14°36' W 061°03'0 0.0
2018-Apr-18 10:30N 14°36' W 061°03'0 0.0
2018-Apr-18 10:00N 14°36' W 061°03'0 0.4
2018-Apr-18 09:30N 14°35' W 061°03'3 5.4
2018-Apr-18 09:00N 14°35' W 061°06'510.3
2018-Apr-18 08:30N 14°36' W 061°11'612.0
2018-Apr-18 08:00N 14°40' W 061°16'4714.0
2018-Apr-18 04:38N 15°24' W 061°32'814.8
2018-Apr-18 04:06N 15°32' W 061°34'115.0
2018-Apr-18 04:00N 15°34' W 061°33'816.8
2018-Apr-18 03:31N 15°42' W 061°32'918.3
2018-Apr-18 03:00N 15°51' W 061°30'918.7
2018-Apr-18 02:30N 15°60' W 061°30'816.2
2018-Apr-18 02:00N 16°08' W 061°31'4 8.1
2018-Apr-18 01:28N 16°12' W 061°32'2 3.0
2018-Apr-18 00:55N 16°14' W 061°33'0 0.0
2018-Apr-18 00:22N 16°14' W 061°33'0 0.0
2018-Apr-17 23:49N 16°14' W 061°33'0 0.0
2018-Apr-17 23:25N 16°14' W 061°33'0 0.0
2018-Apr-17 22:55N 16°14' W 061°33'0 0.0
2018-Apr-17 20:49N 16°14' W 061°33'0 0.0
2018-Apr-17 20:28N 16°14' W 061°33'0 0.0
2018-Apr-17 19:49N 16°14' W 061°33'0 0.0
2018-Apr-17 19:28N 16°14' W 061°33'0 0.0
2018-Apr-17 18:58N 16°14' W 061°33'0 0.0
2018-Apr-17 18:28N 16°14' W 061°33'0 0.0
2018-Apr-17 17:58N 16°14' W 061°33'0 0.0
2018-Apr-17 17:22N 16°14' W 061°33'0 0.0
2018-Apr-17 16:55N 16°14' W 061°33'0 0.0
2018-Apr-17 15:10N 16°14' W 061°33'0 0.0
2018-Apr-17 14:52N 16°14' W 061°33'0 0.0
2018-Apr-17 14:25N 16°14' W 061°33'0 0.0
2018-Apr-17 13:58N 16°14' W 061°33'0 0.0
2018-Apr-17 13:28N 16°14' W 061°33'0 0.0
2018-Apr-17 12:58N 16°14' W 061°33'0 0.0
2018-Apr-17 12:28N 16°14' W 061°33'0 0.0
2018-Apr-17 11:58N 16°14' W 061°33'0 0.0
2018-Apr-17 11:28N 16°14' W 061°33'0 0.0
2018-Apr-17 10:46N 16°14' W 061°33'0 0.0
2018-Apr-17 10:28N 16°14' W 061°33'0 0.0
2018-Apr-17 08:55N 16°14' W 061°33'0 0.0
2018-Apr-17 08:19N 16°14' W 061°33'0 0.0
2018-Apr-17 06:55N 16°14' W 061°33'0 0.0
2018-Apr-17 06:25N 16°14' W 061°33'0 0.0
2018-Apr-17 05:58N 16°14' W 061°33'0 0.0
2018-Apr-17 05:25N 16°14' W 061°33'0 0.0
2018-Apr-17 03:55N 16°14' W 061°33'0 0.0
2018-Apr-17 03:28N 16°14' W 061°33'0 0.0
2018-Apr-16 22:43N 16°14' W 061°33'0 0.0
2018-Apr-16 17:52N 16°14' W 061°33'0 0.0
2018-Apr-16 17:28N 16°14' W 061°33'0 0.0
2018-Apr-16 16:58N 16°14' W 061°33'0 0.0
2018-Apr-16 14:22N 16°14' W 061°33'0 0.0
2018-Apr-16 13:43N 16°14' W 061°33'0 0.0
2018-Apr-16 12:22N 16°14' W 061°33'0 0.0
2018-Apr-16 11:58N 16°14' W 061°33'0 0.0
2018-Apr-16 11:07N 16°14' W 061°33'0 0.0
2018-Apr-16 10:10N 16°14' W 061°33'0 0.1
2018-Apr-16 10:00N 16°14' W 061°33'2 4.3
2018-Apr-16 09:30N 16°12' W 061°32'3 5.8
2018-Apr-16 09:00N 16°09' W 061°30'5 9.7
2018-Apr-16 08:30N 16°07' W 061°26'816.1
2018-Apr-16 08:01N 16°07' W 061°18'1817.2
2018-Apr-16 06:56N 16°12' W 060°59'  

Dump ship's entire track history